sensor_id;sensor_type;location;lat;lon;timestamp;P1;durP1;ratioP1;P2;durP2;ratioP2
80936;SDS011;70395;51.382;7.074;2024-01-15T00:00:23;39.65;;;24.90;;
80936;SDS011;70395;51.382;7.074;2024-01-15T00:02:48;41.90;;;24.23;;
80936;SDS011;70395;51.382;7.074;2024-01-15T00:05:14;43.67;;;24.80;;
80936;SDS011;70395;51.382;7.074;2024-01-15T00:07:40;37.50;;;24.57;;
80936;SDS011;70395;51.382;7.074;2024-01-15T00:10:06;44.97;;;26.07;;
80936;SDS011;70395;51.382;7.074;2024-01-15T00:12:32;35.28;;;23.27;;
80936;SDS011;70395;51.382;7.074;2024-01-15T00:14:58;39.90;;;25.10;;
80936;SDS011;70395;51.382;7.074;2024-01-15T00:17:24;40.90;;;24.70;;
80936;SDS011;70395;51.382;7.074;2024-01-15T00:19:49;40.33;;;24.50;;
80936;SDS011;70395;51.382;7.074;2024-01-15T00:22:15;39.30;;;23.33;;
80936;SDS011;70395;51.382;7.074;2024-01-15T00:24:41;40.00;;;23.67;;
80936;SDS011;70395;51.382;7.074;2024-01-15T00:27:07;38.97;;;23.80;;
80936;SDS011;70395;51.382;7.074;2024-01-15T00:29:33;43.03;;;24.77;;
80936;SDS011;70395;51.382;7.074;2024-01-15T00:31:58;34.67;;;22.93;;
80936;SDS011;70395;51.382;7.074;2024-01-15T00:34:24;35.60;;;24.70;;
80936;SDS011;70395;51.382;7.074;2024-01-15T00:36:50;38.60;;;25.10;;
80936;SDS011;70395;51.382;7.074;2024-01-15T00:39:16;39.63;;;24.97;;
80936;SDS011;70395;51.382;7.074;2024-01-15T00:41:41;35.60;;;23.80;;
80936;SDS011;70395;51.382;7.074;2024-01-15T00:44:08;40.35;;;24.88;;
80936;SDS011;70395;51.382;7.074;2024-01-15T00:46:41;40.90;;;24.40;;
80936;SDS011;70395;51.382;7.074;2024-01-15T00:49:11;41.22;;;26.88;;
80936;SDS011;70395;51.382;7.074;2024-01-15T00:51:38;42.25;;;25.30;;
80936;SDS011;70395;51.382;7.074;2024-01-15T00:54:05;35.95;;;23.70;;
80936;SDS011;70395;51.382;7.074;2024-01-15T00:56:31;42.03;;;24.00;;
80936;SDS011;70395;51.382;7.074;2024-01-15T00:58:57;34.10;;;22.33;;
80936;SDS011;70395;51.382;7.074;2024-01-15T01:01:22;37.40;;;23.50;;
80936;SDS011;70395;51.382;7.074;2024-01-15T01:03:48;38.60;;;23.30;;
80936;SDS011;70395;51.382;7.074;2024-01-15T01:06:14;34.97;;;22.90;;
80936;SDS011;70395;51.382;7.074;2024-01-15T01:08:40;41.33;;;22.60;;
80936;SDS011;70395;51.382;7.074;2024-01-15T01:11:06;37.53;;;23.97;;
80936;SDS011;70395;51.382;7.074;2024-01-15T01:13:32;43.60;;;25.93;;
80936;SDS011;70395;51.382;7.074;2024-01-15T01:15:58;38.13;;;23.70;;
80936;SDS011;70395;51.382;7.074;2024-01-15T01:18:23;35.67;;;23.13;;
80936;SDS011;70395;51.382;7.074;2024-01-15T01:20:50;39.93;;;25.57;;
80936;SDS011;70395;51.382;7.074;2024-01-15T01:23:16;37.78;;;24.20;;
80936;SDS011;70395;51.382;7.074;2024-01-15T01:25:42;36.77;;;23.50;;
80936;SDS011;70395;51.382;7.074;2024-01-15T01:28:07;39.33;;;24.17;;
80936;SDS011;70395;51.382;7.074;2024-01-15T01:30:34;39.78;;;24.25;;
80936;SDS011;70395;51.382;7.074;2024-01-15T01:33:00;38.80;;;24.83;;
80936;SDS011;70395;51.382;7.074;2024-01-15T01:35:25;35.87;;;22.50;;
80936;SDS011;70395;51.382;7.074;2024-01-15T01:37:51;39.10;;;23.70;;
80936;SDS011;70395;51.382;7.074;2024-01-15T01:40:17;33.70;;;23.47;;
80936;SDS011;70395;51.382;7.074;2024-01-15T01:42:43;38.67;;;24.20;;
80936;SDS011;70395;51.382;7.074;2024-01-15T01:45:08;31.80;;;22.23;;
80936;SDS011;70395;51.382;7.074;2024-01-15T01:47:35;39.78;;;21.85;;
80936;SDS011;70395;51.382;7.074;2024-01-15T01:50:01;34.95;;;22.83;;
80936;SDS011;70395;51.382;7.074;2024-01-15T01:52:28;34.67;;;22.65;;
80936;SDS011;70395;51.382;7.074;2024-01-15T01:54:54;35.10;;;23.47;;
80936;SDS011;70395;51.382;7.074;2024-01-15T01:57:21;37.45;;;22.65;;
80936;SDS011;70395;51.382;7.074;2024-01-15T01:59:47;40.30;;;23.57;;
80936;SDS011;70395;51.382;7.074;2024-01-15T02:02:13;37.00;;;23.27;;
80936;SDS011;70395;51.382;7.074;2024-01-15T02:04:40;33.70;;;22.15;;
80936;SDS011;70395;51.382;7.074;2024-01-15T02:07:06;38.70;;;22.73;;
80936;SDS011;70395;51.382;7.074;2024-01-15T02:09:32;33.83;;;21.10;;
80936;SDS011;70395;51.382;7.074;2024-01-15T02:11:58;38.60;;;22.30;;
80936;SDS011;70395;51.382;7.074;2024-01-15T02:14:24;34.67;;;22.67;;
80936;SDS011;70395;51.382;7.074;2024-01-15T02:16:49;37.20;;;22.90;;
80936;SDS011;70395;51.382;7.074;2024-01-15T02:19:16;33.13;;;22.40;;
80936;SDS011;70395;51.382;7.074;2024-01-15T02:21:42;36.92;;;23.20;;
80936;SDS011;70395;51.382;7.074;2024-01-15T02:24:09;38.97;;;22.45;;
80936;SDS011;70395;51.382;7.074;2024-01-15T02:26:35;43.38;;;24.40;;
80936;SDS011;70395;51.382;7.074;2024-01-15T02:29:03;35.28;;;21.75;;
80936;SDS011;70395;51.382;7.074;2024-01-15T02:31:32;31.02;;;21.40;;
80936;SDS011;70395;51.382;7.074;2024-01-15T02:33:58;36.07;;;21.20;;
80936;SDS011;70395;51.382;7.074;2024-01-15T02:36:23;31.40;;;20.33;;
80936;SDS011;70395;51.382;7.074;2024-01-15T02:38:49;37.87;;;21.97;;
80936;SDS011;70395;51.382;7.074;2024-01-15T02:41:15;37.10;;;22.60;;
80936;SDS011;70395;51.382;7.074;2024-01-15T02:43:41;35.87;;;21.63;;
80936;SDS011;70395;51.382;7.074;2024-01-15T02:46:07;37.97;;;23.50;;
80936;SDS011;70395;51.382;7.074;2024-01-15T02:48:32;35.07;;;20.23;;
80936;SDS011;70395;51.382;7.074;2024-01-15T02:51:00;31.60;;;20.45;;
80936;SDS011;70395;51.382;7.074;2024-01-15T02:53:27;35.20;;;21.73;;
80936;SDS011;70395;51.382;7.074;2024-01-15T02:55:53;29.40;;;20.03;;
80936;SDS011;70395;51.382;7.074;2024-01-15T02:58:18;32.73;;;20.30;;
80936;SDS011;70395;51.382;7.074;2024-01-15T03:00:44;28.00;;;19.07;;
80936;SDS011;70395;51.382;7.074;2024-01-15T03:03:11;30.42;;;19.50;;
80936;SDS011;70395;51.382;7.074;2024-01-15T03:05:37;31.27;;;18.67;;
80936;SDS011;70395;51.382;7.074;2024-01-15T03:08:03;29.60;;;20.33;;
80936;SDS011;70395;51.382;7.074;2024-01-15T03:10:29;29.30;;;19.43;;
80936;SDS011;70395;51.382;7.074;2024-01-15T03:12:55;31.07;;;20.00;;
80936;SDS011;70395;51.382;7.074;2024-01-15T03:15:22;29.80;;;19.33;;
80936;SDS011;70395;51.382;7.074;2024-01-15T03:17:47;26.70;;;18.33;;
80936;SDS011;70395;51.382;7.074;2024-01-15T03:20:13;34.73;;;19.63;;
80936;SDS011;70395;51.382;7.074;2024-01-15T03:22:39;29.30;;;17.57;;
80936;SDS011;70395;51.382;7.074;2024-01-15T03:25:05;27.07;;;18.30;;
80936;SDS011;70395;51.382;7.074;2024-01-15T03:27:32;29.52;;;17.38;;
80936;SDS011;70395;51.382;7.074;2024-01-15T03:29:58;26.20;;;17.48;;
80936;SDS011;70395;51.382;7.074;2024-01-15T03:32:24;24.47;;;15.23;;
80936;SDS011;70395;51.382;7.074;2024-01-15T03:34:50;22.53;;;14.90;;
80936;SDS011;70395;51.382;7.074;2024-01-15T03:37:17;21.25;;;14.40;;
80936;SDS011;70395;51.382;7.074;2024-01-15T03:39:43;28.27;;;15.97;;
80936;SDS011;70395;51.382;7.074;2024-01-15T03:42:08;18.53;;;14.00;;
80936;SDS011;70395;51.382;7.074;2024-01-15T03:44:34;23.43;;;15.07;;
80936;SDS011;70395;51.382;7.074;2024-01-15T03:47:00;28.73;;;16.27;;
80936;SDS011;70395;51.382;7.074;2024-01-15T03:49:26;19.40;;;13.00;;
80936;SDS011;70395;51.382;7.074;2024-01-15T03:51:51;22.43;;;14.20;;
80936;SDS011;70395;51.382;7.074;2024-01-15T03:54:17;22.47;;;13.13;;
80936;SDS011;70395;51.382;7.074;2024-01-15T03:56:43;19.23;;;13.80;;
80936;SDS011;70395;51.382;7.074;2024-01-15T03:59:09;24.03;;;14.90;;
80936;SDS011;70395;51.382;7.074;2024-01-15T04:01:34;22.03;;;14.20;;
80936;SDS011;70395;51.382;7.074;2024-01-15T04:04:00;24.20;;;14.70;;
80936;SDS011;70395;51.382;7.074;2024-01-15T04:06:26;20.23;;;14.33;;
80936;SDS011;70395;51.382;7.074;2024-01-15T04:08:52;21.07;;;14.00;;
80936;SDS011;70395;51.382;7.074;2024-01-15T04:11:17;21.10;;;14.97;;
80936;SDS011;70395;51.382;7.074;2024-01-15T04:13:43;20.47;;;13.43;;
80936;SDS011;70395;51.382;7.074;2024-01-15T04:16:09;25.80;;;14.57;;
80936;SDS011;70395;51.382;7.074;2024-01-15T04:18:35;21.63;;;14.17;;
80936;SDS011;70395;51.382;7.074;2024-01-15T04:21:00;20.50;;;14.43;;
80936;SDS011;70395;51.382;7.074;2024-01-15T04:23:29;21.52;;;15.13;;
80936;SDS011;70395;51.382;7.074;2024-01-15T04:25:55;26.93;;;14.67;;
80936;SDS011;70395;51.382;7.074;2024-01-15T04:28:21;23.23;;;14.10;;
80936;SDS011;70395;51.382;7.074;2024-01-15T04:30:46;18.77;;;13.40;;
80936;SDS011;70395;51.382;7.074;2024-01-15T04:33:12;25.37;;;13.27;;
80936;SDS011;70395;51.382;7.074;2024-01-15T04:35:38;23.10;;;14.23;;
80936;SDS011;70395;51.382;7.074;2024-01-15T04:38:04;19.67;;;13.63;;
80936;SDS011;70395;51.382;7.074;2024-01-15T04:40:29;21.57;;;14.10;;
80936;SDS011;70395;51.382;7.074;2024-01-15T04:42:55;20.20;;;14.10;;
80936;SDS011;70395;51.382;7.074;2024-01-15T04:45:21;24.43;;;15.30;;
80936;SDS011;70395;51.382;7.074;2024-01-15T04:47:53;21.30;;;14.23;;
80936;SDS011;70395;51.382;7.074;2024-01-15T04:50:21;22.52;;;15.15;;
80936;SDS011;70395;51.382;7.074;2024-01-15T04:52:47;19.00;;;14.07;;
80936;SDS011;70395;51.382;7.074;2024-01-15T04:55:13;22.07;;;14.90;;
80936;SDS011;70395;51.382;7.074;2024-01-15T04:57:39;19.93;;;14.60;;
80936;SDS011;70395;51.382;7.074;2024-01-15T05:00:05;18.70;;;14.40;;
80936;SDS011;70395;51.382;7.074;2024-01-15T05:02:31;21.15;;;13.85;;
80936;SDS011;70395;51.382;7.074;2024-01-15T05:04:57;19.43;;;14.13;;
80936;SDS011;70395;51.382;7.074;2024-01-15T05:07:23;16.83;;;13.33;;
80936;SDS011;70395;51.382;7.074;2024-01-15T05:09:49;16.87;;;13.93;;
80936;SDS011;70395;51.382;7.074;2024-01-15T05:12:14;17.83;;;12.80;;
80936;SDS011;70395;51.382;7.074;2024-01-15T05:14:40;21.73;;;14.30;;
80936;SDS011;70395;51.382;7.074;2024-01-15T05:17:06;20.67;;;14.20;;
80936;SDS011;70395;51.382;7.074;2024-01-15T05:19:32;20.40;;;13.13;;
80936;SDS011;70395;51.382;7.074;2024-01-15T05:21:57;21.63;;;12.97;;
80936;SDS011;70395;51.382;7.074;2024-01-15T05:24:23;20.47;;;13.57;;
80936;SDS011;70395;51.382;7.074;2024-01-15T05:26:51;20.27;;;13.02;;
80936;SDS011;70395;51.382;7.074;2024-01-15T05:29:17;20.25;;;12.85;;
80936;SDS011;70395;51.382;7.074;2024-01-15T05:31:43;19.98;;;12.60;;
80936;SDS011;70395;51.382;7.074;2024-01-15T05:34:09;18.25;;;11.38;;
80936;SDS011;70395;51.382;7.074;2024-01-15T05:36:35;16.47;;;12.43;;
80936;SDS011;70395;51.382;7.074;2024-01-15T05:39:01;19.40;;;11.70;;
80936;SDS011;70395;51.382;7.074;2024-01-15T05:41:28;17.73;;;12.38;;
80936;SDS011;70395;51.382;7.074;2024-01-15T05:43:53;19.90;;;12.70;;
80936;SDS011;70395;51.382;7.074;2024-01-15T05:46:19;16.50;;;12.40;;
80936;SDS011;70395;51.382;7.074;2024-01-15T05:48:45;18.57;;;12.20;;
80936;SDS011;70395;51.382;7.074;2024-01-15T05:51:10;20.70;;;11.70;;
80936;SDS011;70395;51.382;7.074;2024-01-15T05:53:37;17.40;;;11.60;;
80936;SDS011;70395;51.382;7.074;2024-01-15T05:56:05;13.45;;;10.27;;
80936;SDS011;70395;51.382;7.074;2024-01-15T05:58:31;15.73;;;10.77;;
80936;SDS011;70395;51.382;7.074;2024-01-15T06:00:57;14.13;;;10.03;;
80936;SDS011;70395;51.382;7.074;2024-01-15T06:03:23;14.93;;;10.90;;
80936;SDS011;70395;51.382;7.074;2024-01-15T06:05:48;14.37;;;10.87;;
80936;SDS011;70395;51.382;7.074;2024-01-15T06:08:14;17.10;;;9.70;;
80936;SDS011;70395;51.382;7.074;2024-01-15T06:10:40;15.00;;;11.00;;
80936;SDS011;70395;51.382;7.074;2024-01-15T06:13:05;15.57;;;10.73;;
80936;SDS011;70395;51.382;7.074;2024-01-15T06:15:31;14.33;;;10.17;;
80936;SDS011;70395;51.382;7.074;2024-01-15T06:17:57;16.17;;;10.20;;
80936;SDS011;70395;51.382;7.074;2024-01-15T06:20:23;16.60;;;12.17;;
80936;SDS011;70395;51.382;7.074;2024-01-15T06:22:48;15.50;;;10.03;;
80936;SDS011;70395;51.382;7.074;2024-01-15T06:25:14;13.40;;;10.20;;
80936;SDS011;70395;51.382;7.074;2024-01-15T06:27:42;16.40;;;10.60;;
80936;SDS011;70395;51.382;7.074;2024-01-15T06:30:08;15.15;;;10.10;;
80936;SDS011;70395;51.382;7.074;2024-01-15T06:32:34;12.63;;;10.23;;
80936;SDS011;70395;51.382;7.074;2024-01-15T06:35:00;15.03;;;10.37;;
80936;SDS011;70395;51.382;7.074;2024-01-15T06:37:26;14.77;;;9.90;;
80936;SDS011;70395;51.382;7.074;2024-01-15T06:39:52;16.33;;;10.20;;
80936;SDS011;70395;51.382;7.074;2024-01-15T06:42:18;18.30;;;11.10;;
80936;SDS011;70395;51.382;7.074;2024-01-15T06:44:44;18.60;;;12.43;;
80936;SDS011;70395;51.382;7.074;2024-01-15T06:47:09;11.30;;;9.97;;
80936;SDS011;70395;51.382;7.074;2024-01-15T06:49:35;14.07;;;10.55;;
80936;SDS011;70395;51.382;7.074;2024-01-15T06:52:01;17.03;;;10.63;;
80936;SDS011;70395;51.382;7.074;2024-01-15T06:54:27;14.07;;;12.27;;
80936;SDS011;70395;51.382;7.074;2024-01-15T06:56:53;14.13;;;12.23;;
80936;SDS011;70395;51.382;7.074;2024-01-15T06:59:18;16.23;;;12.00;;
80936;SDS011;70395;51.382;7.074;2024-01-15T07:01:44;15.50;;;12.20;;
80936;SDS011;70395;51.382;7.074;2024-01-15T07:04:10;15.87;;;12.30;;
80936;SDS011;70395;51.382;7.074;2024-01-15T07:06:36;16.33;;;12.90;;
80936;SDS011;70395;51.382;7.074;2024-01-15T07:09:01;21.03;;;13.13;;
80936;SDS011;70395;51.382;7.074;2024-01-15T07:11:27;15.85;;;11.75;;
80936;SDS011;70395;51.382;7.074;2024-01-15T07:13:53;16.23;;;12.40;;
80936;SDS011;70395;51.382;7.074;2024-01-15T07:16:19;14.47;;;10.80;;
80936;SDS011;70395;51.382;7.074;2024-01-15T07:18:45;15.05;;;11.48;;
80936;SDS011;70395;51.382;7.074;2024-01-15T07:21:11;11.57;;;10.37;;
80936;SDS011;70395;51.382;7.074;2024-01-15T07:23:36;15.57;;;10.70;;
80936;SDS011;70395;51.382;7.074;2024-01-15T07:26:02;17.80;;;11.80;;
80936;SDS011;70395;51.382;7.074;2024-01-15T07:28:30;14.43;;;10.95;;
80936;SDS011;70395;51.382;7.074;2024-01-15T07:30:56;16.70;;;10.23;;
80936;SDS011;70395;51.382;7.074;2024-01-15T07:33:22;13.00;;;10.40;;
80936;SDS011;70395;51.382;7.074;2024-01-15T07:35:48;11.97;;;9.80;;
80936;SDS011;70395;51.382;7.074;2024-01-15T07:38:13;13.70;;;11.20;;
80936;SDS011;70395;51.382;7.074;2024-01-15T07:40:39;12.10;;;10.27;;
80936;SDS011;70395;51.382;7.074;2024-01-15T07:43:05;11.00;;;8.90;;
80936;SDS011;70395;51.382;7.074;2024-01-15T07:45:31;11.03;;;8.70;;
80936;SDS011;70395;51.382;7.074;2024-01-15T07:47:57;8.20;;;7.40;;
80936;SDS011;70395;51.382;7.074;2024-01-15T07:50:23;6.70;;;5.90;;
80936;SDS011;70395;51.382;7.074;2024-01-15T07:52:49;8.68;;;6.40;;
80936;SDS011;70395;51.382;7.074;2024-01-15T07:55:14;9.10;;;6.87;;
80936;SDS011;70395;51.382;7.074;2024-01-15T07:57:40;10.23;;;6.77;;
80936;SDS011;70395;51.382;7.074;2024-01-15T08:00:06;12.60;;;7.60;;
80936;SDS011;70395;51.382;7.074;2024-01-15T08:02:34;13.60;;;7.95;;
80936;SDS011;70395;51.382;7.074;2024-01-15T08:05:00;9.20;;;7.50;;
80936;SDS011;70395;51.382;7.074;2024-01-15T08:07:26;9.80;;;7.47;;
80936;SDS011;70395;51.382;7.074;2024-01-15T08:09:52;11.10;;;9.40;;
80936;SDS011;70395;51.382;7.074;2024-01-15T08:12:18;10.48;;;8.70;;
80936;SDS011;70395;51.382;7.074;2024-01-15T08:14:44;12.73;;;8.97;;
80936;SDS011;70395;51.382;7.074;2024-01-15T08:17:10;12.13;;;8.80;;
80936;SDS011;70395;51.382;7.074;2024-01-15T08:19:36;11.35;;;8.43;;
80936;SDS011;70395;51.382;7.074;2024-01-15T08:22:02;11.07;;;9.97;;
80936;SDS011;70395;51.382;7.074;2024-01-15T08:24:28;9.17;;;8.23;;
80936;SDS011;70395;51.382;7.074;2024-01-15T08:26:54;14.90;;;8.43;;
80936;SDS011;70395;51.382;7.074;2024-01-15T08:29:21;9.85;;;8.40;;
80936;SDS011;70395;51.382;7.074;2024-01-15T08:31:47;11.13;;;9.68;;
80936;SDS011;70395;51.382;7.074;2024-01-15T08:34:13;8.90;;;8.00;;
80936;SDS011;70395;51.382;7.074;2024-01-15T08:36:39;10.87;;;8.23;;
80936;SDS011;70395;51.382;7.074;2024-01-15T08:39:05;10.35;;;8.10;;
80936;SDS011;70395;51.382;7.074;2024-01-15T08:41:32;9.27;;;8.18;;
80936;SDS011;70395;51.382;7.074;2024-01-15T08:43:59;8.60;;;7.45;;
80936;SDS011;70395;51.382;7.074;2024-01-15T08:46:25;10.23;;;8.00;;
80936;SDS011;70395;51.382;7.074;2024-01-15T08:48:51;8.50;;;7.70;;
80936;SDS011;70395;51.382;7.074;2024-01-15T08:51:17;9.10;;;8.20;;
80936;SDS011;70395;51.382;7.074;2024-01-15T08:53:43;10.35;;;8.70;;
80936;SDS011;70395;51.382;7.074;2024-01-15T08:56:09;11.70;;;10.50;;
80936;SDS011;70395;51.382;7.074;2024-01-15T08:58:35;12.07;;;10.05;;
80936;SDS011;70395;51.382;7.074;2024-01-15T09:01:01;10.80;;;9.70;;
80936;SDS011;70395;51.382;7.074;2024-01-15T09:03:27;11.90;;;9.47;;
80936;SDS011;70395;51.382;7.074;2024-01-15T09:05:53;11.10;;;10.00;;
80936;SDS011;70395;51.382;7.074;2024-01-15T09:08:19;11.05;;;9.95;;
80936;SDS011;70395;51.382;7.074;2024-01-15T09:10:45;12.67;;;9.90;;
80936;SDS011;70395;51.382;7.074;2024-01-15T09:13:11;10.07;;;9.03;;
80936;SDS011;70395;51.382;7.074;2024-01-15T09:15:37;10.43;;;9.30;;
80936;SDS011;70395;51.382;7.074;2024-01-15T09:18:04;11.68;;;10.48;;
80936;SDS011;70395;51.382;7.074;2024-01-15T09:20:30;10.23;;;8.95;;
80936;SDS011;70395;51.382;7.074;2024-01-15T09:22:56;9.70;;;8.70;;
80936;SDS011;70395;51.382;7.074;2024-01-15T09:25:22;10.47;;;9.40;;
80936;SDS011;70395;51.382;7.074;2024-01-15T09:27:47;12.40;;;9.93;;
80936;SDS011;70395;51.382;7.074;2024-01-15T09:30:13;10.50;;;9.43;;
80936;SDS011;70395;51.382;7.074;2024-01-15T09:32:40;9.00;;;8.10;;
80936;SDS011;70395;51.382;7.074;2024-01-15T09:35:06;7.50;;;6.80;;
80936;SDS011;70395;51.382;7.074;2024-01-15T09:37:32;9.18;;;7.38;;
80936;SDS011;70395;51.382;7.074;2024-01-15T09:39:58;7.37;;;6.63;;
80936;SDS011;70395;51.382;7.074;2024-01-15T09:42:24;6.90;;;6.00;;
80936;SDS011;70395;51.382;7.074;2024-01-15T09:44:51;5.82;;;5.28;;
80936;SDS011;70395;51.382;7.074;2024-01-15T09:47:18;4.90;;;4.40;;
80936;SDS011;70395;51.382;7.074;2024-01-15T09:49:46;5.78;;;5.18;;
80936;SDS011;70395;51.382;7.074;2024-01-15T09:52:13;5.90;;;5.40;;
80936;SDS011;70395;51.382;7.074;2024-01-15T09:54:44;4.95;;;4.47;;
80936;SDS011;70395;51.382;7.074;2024-01-15T09:57:12;5.45;;;4.95;;
80936;SDS011;70395;51.382;7.074;2024-01-15T09:59:38;8.20;;;7.47;;
80936;SDS011;70395;51.382;7.074;2024-01-15T10:02:07;6.57;;;6.00;;
80936;SDS011;70395;51.382;7.074;2024-01-15T10:04:39;6.90;;;6.20;;
80936;SDS011;70395;51.382;7.074;2024-01-15T10:07:05;7.40;;;6.50;;
80936;SDS011;70395;51.382;7.074;2024-01-15T10:09:33;7.60;;;6.85;;
80936;SDS011;70395;51.382;7.074;2024-01-15T10:11:59;8.33;;;7.53;;
80936;SDS011;70395;51.382;7.074;2024-01-15T10:14:26;10.55;;;8.88;;
80936;SDS011;70395;51.382;7.074;2024-01-15T10:16:52;8.57;;;7.73;;
80936;SDS011;70395;51.382;7.074;2024-01-15T10:19:18;8.90;;;8.00;;
80936;SDS011;70395;51.382;7.074;2024-01-15T10:21:44;8.53;;;7.73;;
80936;SDS011;70395;51.382;7.074;2024-01-15T10:24:11;7.82;;;7.05;;
80936;SDS011;70395;51.382;7.074;2024-01-15T10:26:37;10.15;;;8.02;;
80936;SDS011;70395;51.382;7.074;2024-01-15T10:29:03;7.93;;;7.17;;
80936;SDS011;70395;51.382;7.074;2024-01-15T10:31:29;9.60;;;8.40;;
80936;SDS011;70395;51.382;7.074;2024-01-15T10:34:09;9.30;;;7.80;;
80936;SDS011;70395;51.382;7.074;2024-01-15T10:36:40;12.00;;;7.50;;
80936;SDS011;70395;51.382;7.074;2024-01-15T10:39:06;7.75;;;6.75;;
80936;SDS011;70395;51.382;7.074;2024-01-15T10:41:33;8.65;;;7.22;;
80936;SDS011;70395;51.382;7.074;2024-01-15T10:43:59;9.05;;;8.02;;
80936;SDS011;70395;51.382;7.074;2024-01-15T10:46:25;8.97;;;8.07;;
80936;SDS011;70395;51.382;7.074;2024-01-15T10:48:51;8.75;;;7.85;;
80936;SDS011;70395;51.382;7.074;2024-01-15T10:51:17;7.40;;;6.70;;
80936;SDS011;70395;51.382;7.074;2024-01-15T10:53:43;7.70;;;6.97;;
80936;SDS011;70395;51.382;7.074;2024-01-15T10:56:11;8.07;;;7.28;;
80936;SDS011;70395;51.382;7.074;2024-01-15T10:58:39;9.80;;;7.30;;
80936;SDS011;70395;51.382;7.074;2024-01-15T11:01:07;8.40;;;7.60;;
80936;SDS011;70395;51.382;7.074;2024-01-15T11:03:33;11.00;;;8.57;;
80936;SDS011;70395;51.382;7.074;2024-01-15T11:05:59;9.15;;;8.25;;
80936;SDS011;70395;51.382;7.074;2024-01-15T11:08:25;9.23;;;7.97;;
80936;SDS011;70395;51.382;7.074;2024-01-15T11:10:51;10.52;;;8.20;;
80936;SDS011;70395;51.382;7.074;2024-01-15T11:16:04;9.68;;;7.05;;
80936;SDS011;70395;51.382;7.074;2024-01-15T11:18:43;10.00;;;6.90;;
80936;SDS011;70395;51.382;7.074;2024-01-15T11:21:21;7.95;;;7.15;;
80936;SDS011;70395;51.382;7.074;2024-01-15T11:34:51;7.15;;;6.05;;
80936;SDS011;70395;51.382;7.074;2024-01-15T11:37:56;8.10;;;6.60;;
80936;SDS011;70395;51.382;7.074;2024-01-15T11:40:19;9.07;;;8.18;;
80936;SDS011;70395;51.382;7.074;2024-01-15T11:43:05;9.13;;;7.57;;
80936;SDS011;70395;51.382;7.074;2024-01-15T11:45:32;9.00;;;7.97;;
80936;SDS011;70395;51.382;7.074;2024-01-15T11:48:11;8.82;;;7.95;;
80936;SDS011;70395;51.382;7.074;2024-01-15T11:50:48;9.50;;;8.25;;
80936;SDS011;70395;51.382;7.074;2024-01-15T11:56:16;8.40;;;7.35;;
80936;SDS011;70395;51.382;7.074;2024-01-15T11:58:47;10.98;;;8.50;;
80936;SDS011;70395;51.382;7.074;2024-01-15T12:01:15;10.60;;;9.13;;
80936;SDS011;70395;51.382;7.074;2024-01-15T12:03:41;9.90;;;7.60;;
80936;SDS011;70395;51.382;7.074;2024-01-15T12:06:07;8.23;;;7.33;;
80936;SDS011;70395;51.382;7.074;2024-01-15T12:08:35;9.70;;;7.85;;
80936;SDS011;70395;51.382;7.074;2024-01-15T12:11:03;7.95;;;7.15;;
80936;SDS011;70395;51.382;7.074;2024-01-15T12:13:36;7.88;;;7.07;;
80936;SDS011;70395;51.382;7.074;2024-01-15T12:16:02;6.93;;;6.23;;
80936;SDS011;70395;51.382;7.074;2024-01-15T12:18:29;8.52;;;6.70;;
80936;SDS011;70395;51.382;7.074;2024-01-15T12:20:55;9.15;;;7.13;;
80936;SDS011;70395;51.382;7.074;2024-01-15T12:23:23;8.05;;;7.18;;
80936;SDS011;70395;51.382;7.074;2024-01-15T12:25:49;11.93;;;6.30;;
80936;SDS011;70395;51.382;7.074;2024-01-15T12:28:15;9.32;;;7.00;;
80936;SDS011;70395;51.382;7.074;2024-01-15T12:30:41;10.53;;;6.07;;
80936;SDS011;70395;51.382;7.074;2024-01-15T12:33:07;7.30;;;5.40;;
80936;SDS011;70395;51.382;7.074;2024-01-15T12:35:34;8.07;;;6.30;;
80936;SDS011;70395;51.382;7.074;2024-01-15T12:38:00;5.97;;;4.95;;
80936;SDS011;70395;51.382;7.074;2024-01-15T12:40:27;8.20;;;4.88;;
80936;SDS011;70395;51.382;7.074;2024-01-15T12:42:53;6.70;;;4.60;;
80936;SDS011;70395;51.382;7.074;2024-01-15T12:45:20;7.65;;;4.65;;
80936;SDS011;70395;51.382;7.074;2024-01-15T12:47:46;7.57;;;4.77;;
80936;SDS011;70395;51.382;7.074;2024-01-15T12:50:12;6.43;;;3.80;;
80936;SDS011;70395;51.382;7.074;2024-01-15T12:52:41;6.28;;;4.35;;
80936;SDS011;70395;51.382;7.074;2024-01-15T12:55:08;10.00;;;5.00;;
80936;SDS011;70395;51.382;7.074;2024-01-15T12:57:35;7.18;;;4.25;;
80936;SDS011;70395;51.382;7.074;2024-01-15T13:00:02;5.75;;;4.63;;
80936;SDS011;70395;51.382;7.074;2024-01-15T13:02:33;9.60;;;5.20;;
80936;SDS011;70395;51.382;7.074;2024-01-15T13:04:59;8.35;;;4.78;;
80936;SDS011;70395;51.382;7.074;2024-01-15T13:07:27;7.30;;;4.43;;
80936;SDS011;70395;51.382;7.074;2024-01-15T13:09:52;7.40;;;4.35;;
80936;SDS011;70395;51.382;7.074;2024-01-15T13:12:19;6.50;;;4.10;;
80936;SDS011;70395;51.382;7.074;2024-01-15T13:14:45;5.45;;;4.40;;
80936;SDS011;70395;51.382;7.074;2024-01-15T13:17:14;4.63;;;3.75;;
80936;SDS011;70395;51.382;7.074;2024-01-15T13:19:40;8.07;;;4.07;;
80936;SDS011;70395;51.382;7.074;2024-01-15T13:22:06;4.80;;;4.27;;
80936;SDS011;70395;51.382;7.074;2024-01-15T13:24:34;9.93;;;4.60;;
80936;SDS011;70395;51.382;7.074;2024-01-15T13:27:01;5.22;;;4.65;;
80936;SDS011;70395;51.382;7.074;2024-01-15T13:29:29;8.80;;;4.30;;
80936;SDS011;70395;51.382;7.074;2024-01-15T13:31:55;7.03;;;4.87;;
80936;SDS011;70395;51.382;7.074;2024-01-15T13:34:22;7.57;;;3.95;;
80936;SDS011;70395;51.382;7.074;2024-01-15T13:36:48;11.03;;;3.90;;
80936;SDS011;70395;51.382;7.074;2024-01-15T13:39:16;13.82;;;4.53;;
80936;SDS011;70395;51.382;7.074;2024-01-15T13:41:45;8.02;;;4.03;;
80936;SDS011;70395;51.382;7.074;2024-01-15T13:44:14;6.75;;;4.70;;
80936;SDS011;70395;51.382;7.074;2024-01-15T13:46:40;6.65;;;4.07;;
80936;SDS011;70395;51.382;7.074;2024-01-15T13:49:06;7.72;;;5.50;;
80936;SDS011;70395;51.382;7.074;2024-01-15T13:51:34;6.45;;;5.35;;
80936;SDS011;70395;51.382;7.074;2024-01-15T13:54:01;6.20;;;5.20;;
80936;SDS011;70395;51.382;7.074;2024-01-15T13:56:29;7.93;;;6.72;;
80936;SDS011;70395;51.382;7.074;2024-01-15T13:58:57;9.13;;;6.63;;
80936;SDS011;70395;51.382;7.074;2024-01-15T14:01:24;6.88;;;5.68;;
80936;SDS011;70395;51.382;7.074;2024-01-15T14:03:52;9.30;;;7.00;;
80936;SDS011;70395;51.382;7.074;2024-01-15T14:06:19;9.75;;;5.57;;
80936;SDS011;70395;51.382;7.074;2024-01-15T14:08:45;7.85;;;4.93;;
80936;SDS011;70395;51.382;7.074;2024-01-15T14:11:11;5.23;;;4.60;;
80936;SDS011;70395;51.382;7.074;2024-01-15T14:13:37;4.85;;;4.35;;
80936;SDS011;70395;51.382;7.074;2024-01-15T14:16:03;5.70;;;3.87;;
80936;SDS011;70395;51.382;7.074;2024-01-15T14:18:30;4.97;;;4.10;;
80936;SDS011;70395;51.382;7.074;2024-01-15T14:20:57;4.45;;;4.03;;
80936;SDS011;70395;51.382;7.074;2024-01-15T14:23:23;6.67;;;3.30;;
80936;SDS011;70395;51.382;7.074;2024-01-15T14:25:49;5.18;;;3.40;;
80936;SDS011;70395;51.382;7.074;2024-01-15T14:28:15;5.30;;;3.33;;
80936;SDS011;70395;51.382;7.074;2024-01-15T14:30:40;3.40;;;3.10;;
80936;SDS011;70395;51.382;7.074;2024-01-15T14:33:07;5.30;;;3.13;;
80936;SDS011;70395;51.382;7.074;2024-01-15T14:35:33;3.60;;;2.80;;
80936;SDS011;70395;51.382;7.074;2024-01-15T14:37:59;3.50;;;2.90;;
80936;SDS011;70395;51.382;7.074;2024-01-15T14:40:25;3.93;;;2.50;;
80936;SDS011;70395;51.382;7.074;2024-01-15T14:42:51;6.28;;;2.90;;